createdAt,value
2023-03-03T00:04:54.897Z,99.90
2023-03-03T00:12:28.568Z,99.90
2023-03-03T00:17:30.530Z,99.90
2023-03-03T00:20:05.856Z,99.90
2023-03-03T00:22:40.380Z,99.90
2023-03-03T00:25:31.081Z,99.90
2023-03-03T00:28:10.624Z,99.90
2023-03-03T00:33:24.585Z,99.90
2023-03-03T00:35:57.629Z,99.90
2023-03-03T00:43:31.351Z,99.90
2023-03-03T00:48:34.293Z,99.90
2023-03-03T00:51:21.911Z,99.90
2023-03-03T00:53:52.628Z,99.90
2023-03-03T00:58:53.149Z,99.90
2023-03-03T01:03:57.449Z,99.90
2023-03-03T01:06:30.928Z,99.90
2023-03-03T01:16:32.782Z,99.90
2023-03-03T01:21:35.640Z,99.90
2023-03-03T01:26:36.029Z,99.90
2023-03-03T01:29:05.937Z,99.90
2023-03-03T01:31:36.508Z,99.90
2023-03-03T01:36:39.835Z,99.90
2023-03-03T01:39:10.230Z,99.90
2023-03-03T01:46:50.837Z,99.90
2023-03-03T01:49:24.302Z,99.90
2023-03-03T01:52:00.409Z,99.90
2023-03-03T01:54:36.112Z,99.90
2023-03-03T01:57:09.688Z,99.90
2023-03-03T01:59:43.290Z,99.90
2023-03-03T02:02:13.798Z,99.90
2023-03-03T02:07:18.877Z,99.90
2023-03-03T02:09:54.288Z,99.90
2023-03-03T02:12:38.496Z,99.90
2023-03-03T02:15:20.054Z,99.90
2023-03-03T02:17:52.361Z,99.90
2023-03-03T02:20:35.104Z,99.90
2023-03-03T02:23:12.774Z,99.90
2023-03-03T02:25:50.699Z,99.90
2023-03-03T02:28:23.915Z,99.90
2023-03-03T02:38:29.784Z,99.90
2023-03-03T02:41:06.115Z,99.90
2023-03-03T03:13:58.768Z,99.90
2023-03-03T03:51:52.626Z,99.90
2023-03-03T03:54:26.865Z,99.90
2023-03-03T04:14:37.435Z,99.90
2023-03-03T04:29:44.703Z,99.90
2023-03-03T04:47:25.988Z,99.90
2023-03-03T04:57:28.362Z,99.90
2023-03-03T05:20:10.770Z,99.90
2023-03-03T05:30:17.239Z,99.90
2023-03-03T05:45:24.452Z,99.90
2023-03-03T05:47:54.745Z,99.90
2023-03-03T05:50:25.805Z,99.90
2023-03-03T05:57:58.206Z,99.90
2023-03-03T06:00:30.777Z,99.90
2023-03-03T06:25:42.111Z,99.90
2023-03-03T06:30:46.021Z,99.90
2023-03-03T06:53:22.291Z,99.90
2023-03-03T06:58:24.343Z,99.90
2023-03-03T07:00:59.917Z,99.90
2023-03-03T07:03:35.498Z,99.90
2023-03-03T07:06:17.460Z,99.90
2023-03-03T07:11:20.860Z,99.90
2023-03-03T07:13:52.806Z,99.90
2023-03-03T07:16:29.777Z,99.90
2023-03-03T07:19:03.639Z,99.90
2023-03-03T07:21:36.402Z,99.90
2023-03-03T07:24:22.006Z,99.90
2023-03-03T07:29:27.057Z,99.90
2023-03-03T07:32:00.880Z,99.90
2023-03-03T07:34:41.004Z,99.90
2023-03-03T07:37:20.194Z,99.90
2023-03-03T07:42:30.604Z,99.90
2023-03-03T07:45:27.624Z,99.90
2023-03-03T07:48:11.049Z,99.90
2023-03-03T07:53:18.004Z,99.90
2023-03-03T07:58:25.253Z,99.90
2023-03-03T08:01:31.023Z,99.90
2023-03-03T08:04:04.512Z,99.90
2023-03-03T08:06:41.950Z,99.90
2023-03-03T08:09:47.892Z,99.90
2023-03-03T08:12:31.689Z,99.90
2023-03-03T08:15:21.746Z,99.90
2023-03-03T08:20:52.585Z,99.90
2023-03-03T08:23:23.314Z,99.90
2023-03-03T08:25:54.553Z,99.90
2023-03-03T08:28:25.093Z,99.90
2023-03-03T08:36:18.032Z,99.90
2023-03-03T09:09:06.674Z,99.90
2023-03-03T09:14:13.873Z,99.90
2023-03-03T09:16:54.107Z,99.90
2023-03-03T09:19:27.556Z,99.90
2023-03-03T09:22:14.606Z,99.90
2023-03-03T09:24:45.593Z,99.90
2023-03-03T09:27:20.275Z,99.90
2023-03-03T09:32:32.995Z,99.90
2023-03-03T09:37:40.591Z,99.90
2023-03-03T09:40:35.460Z,99.90
2023-03-03T09:43:12.383Z,99.90
2023-03-03T09:46:02.022Z,99.90
2023-03-03T09:48:47.238Z,99.90
2023-03-03T09:51:36.109Z,99.90
2023-03-03T09:54:22.186Z,99.90
2023-03-03T09:56:59.173Z,99.90
2023-03-03T09:59:43.233Z,99.40
2023-03-03T10:02:32.978Z,99.90
2023-03-03T10:05:30.583Z,98.50
2023-03-03T10:08:24.679Z,97.50
2023-03-03T10:11:11.162Z,96.70
2023-03-03T10:17:00.361Z,94.00
2023-03-03T10:24:47.879Z,89.40
2023-03-03T10:27:34.804Z,86.60
2023-03-03T10:30:10.848Z,84.50
2023-03-03T10:32:52.454Z,83.70
2023-03-03T10:35:35.844Z,80.80
2023-03-03T10:38:35.542Z,91.70
2023-03-03T10:41:18.990Z,75.40
2023-03-03T10:44:10.339Z,74.40
2023-03-03T10:47:03.877Z,87.70
2023-03-03T10:49:45.952Z,72.00
2023-03-03T10:52:30.511Z,70.70
2023-03-03T10:55:32.981Z,66.20
2023-03-03T10:58:26.213Z,83.90
2023-03-03T11:01:06.959Z,65.70
2023-03-03T11:03:58.873Z,65.70
2023-03-03T11:06:37.039Z,62.50
2023-03-03T11:09:16.558Z,60.90
2023-03-03T11:11:55.615Z,61.20
2023-03-03T11:17:07.726Z,59.30
2023-03-03T11:19:52.729Z,58.60
2023-03-03T11:22:37.496Z,58.30
2023-03-03T11:28:20.245Z,57.80
2023-03-03T11:31:05.410Z,56.70
2023-03-03T11:36:16.854Z,54.10
2023-03-03T11:38:59.443Z,54.80
2023-03-03T11:44:13.911Z,56.70
2023-03-03T11:52:04.541Z,53.90
2023-03-03T11:54:41.678Z,53.30
2023-03-03T11:57:21.054Z,54.20
2023-03-03T11:59:59.251Z,53.20
2023-03-03T12:02:53.806Z,53.90
2023-03-03T12:05:41.234Z,54.20
2023-03-03T12:08:23.565Z,54.00
2023-03-03T12:11:02.740Z,52.10
2023-03-03T12:13:42.355Z,51.30
2023-03-03T12:16:18.878Z,49.70
2023-03-03T12:24:25.577Z,59.70
2023-03-03T12:27:05.281Z,48.80
2023-03-03T12:29:51.250Z,49.60
2023-03-03T12:32:35.293Z,58.20
2023-03-03T12:35:12.242Z,48.30
2023-03-03T12:37:57.490Z,60.00
2023-03-03T12:40:32.146Z,47.90
2023-03-03T12:43:23.298Z,58.70
2023-03-03T12:46:02.372Z,47.60
2023-03-03T12:48:41.544Z,59.40
2023-03-03T12:51:32.160Z,49.00
2023-03-03T12:54:26.236Z,57.20
2023-03-03T12:56:58.150Z,48.50
2023-03-03T12:59:41.366Z,49.30
2023-03-03T13:02:41.021Z,64.70
2023-03-03T13:05:23.207Z,49.60
2023-03-03T13:08:06.419Z,53.10
2023-03-03T13:10:46.245Z,49.10
2023-03-03T13:13:20.854Z,51.90
2023-03-03T13:16:05.451Z,68.30
2023-03-03T13:18:55.376Z,69.10
2023-03-03T13:21:29.612Z,55.50
2023-03-03T13:24:10.648Z,70.90
2023-03-03T13:26:47.592Z,74.70
2023-03-03T13:29:23.146Z,55.20
2023-03-03T13:31:58.008Z,47.10
2023-03-03T13:34:39.961Z,47.20
2023-03-03T13:37:16.994Z,48.00
2023-03-03T13:39:57.834Z,47.70
2023-03-03T13:42:35.582Z,67.10
2023-03-03T13:45:15.341Z,52.80
2023-03-03T13:47:51.646Z,47.50
2023-03-03T13:50:28.948Z,48.60
2023-03-03T13:53:19.518Z,46.40
2023-03-03T13:55:56.492Z,45.30
2023-03-03T13:58:38.421Z,70.30
2023-03-03T14:01:17.452Z,70.40
2023-03-03T14:04:02.409Z,47.10
2023-03-03T14:06:33.532Z,47.10
2023-03-03T14:09:21.261Z,47.20
2023-03-03T14:11:59.193Z,47.90
2023-03-03T14:14:49.802Z,70.20
2023-03-03T14:17:29.592Z,46.70
2023-03-03T14:20:13.687Z,71.10
2023-03-03T14:22:49.169Z,47.10
2023-03-03T14:25:19.489Z,70.90
2023-03-03T14:28:04.330Z,48.60
2023-03-03T14:30:41.010Z,47.70
2023-03-03T14:33:27.082Z,70.80
2023-03-03T14:36:16.234Z,72.70
2023-03-03T14:38:51.907Z,60.80
2023-03-03T14:41:25.180Z,50.20
2023-03-03T14:44:02.910Z,73.40
2023-03-03T14:46:41.768Z,73.60
2023-03-03T14:49:19.570Z,49.80
2023-03-03T14:51:51.561Z,75.60
2023-03-03T14:54:29.873Z,78.20
2023-03-03T14:57:10.804Z,74.90
2023-03-03T14:59:42.032Z,75.60
2023-03-03T15:02:32.563Z,74.90
2023-03-03T15:05:25.316Z,62.80
2023-03-03T15:07:57.917Z,75.00
2023-03-03T15:10:37.339Z,76.20
2023-03-03T15:13:30.950Z,66.20
2023-03-03T15:16:13.916Z,74.50
2023-03-03T15:19:22.534Z,78.10
2023-03-03T15:21:59.881Z,54.50
2023-03-03T15:24:37.065Z,79.30
2023-03-03T15:27:13.608Z,55.30
2023-03-03T15:29:53.788Z,70.70
2023-03-03T15:32:31.149Z,80.60
2023-03-03T15:35:13.701Z,80.80
2023-03-03T15:37:50.482Z,81.80
2023-03-03T15:40:27.342Z,58.20
2023-03-03T15:43:05.748Z,85.90
2023-03-03T15:45:42.275Z,59.70
2023-03-03T15:48:31.055Z,86.60
2023-03-03T15:51:14.471Z,80.30
2023-03-03T15:54:09.314Z,86.80
2023-03-03T15:56:43.232Z,60.90
2023-03-03T15:59:46.419Z,88.80
2023-03-03T16:02:21.927Z,66.20
2023-03-03T16:05:00.451Z,64.70
2023-03-03T16:07:48.611Z,66.10
2023-03-03T16:10:25.151Z,66.00
2023-03-03T16:13:05.676Z,65.10
2023-03-03T16:15:57.075Z,67.30
2023-03-03T16:18:35.940Z,68.10
2023-03-03T16:21:31.920Z,69.60
2023-03-03T16:24:18.737Z,70.50
2023-03-03T16:26:57.180Z,71.40
2023-03-03T16:29:38.259Z,72.20
2023-03-03T16:32:14.453Z,72.50
2023-03-03T16:34:57.664Z,73.70
2023-03-03T16:37:34.750Z,74.30
2023-03-03T16:40:17.370Z,75.90
2023-03-03T16:45:27.124Z,88.00
2023-03-03T16:48:11.326Z,80.50
2023-03-03T16:50:47.665Z,82.60
2023-03-03T16:53:27.553Z,84.10
2023-03-03T16:56:07.996Z,84.80
2023-03-03T16:58:50.763Z,85.40
2023-03-03T17:01:30.698Z,86.10
2023-03-03T17:04:03.795Z,86.90
2023-03-03T17:06:46.212Z,87.80
2023-03-03T17:09:45.038Z,87.40
2023-03-03T17:12:42.143Z,91.40
2023-03-03T17:15:27.022Z,98.20
2023-03-03T17:18:01.996Z,90.10
2023-03-03T17:20:39.733Z,90.80
2023-03-03T17:23:34.007Z,91.10
2023-03-03T17:26:26.803Z,91.40
2023-03-03T17:29:11.600Z,91.80
2023-03-03T17:31:47.024Z,92.10
2023-03-03T17:34:30.412Z,92.30
2023-03-03T17:37:14.936Z,92.50
2023-03-03T17:40:15.242Z,92.80
2023-03-03T17:42:52.307Z,93.00
2023-03-03T17:45:30.845Z,93.40
2023-03-03T17:48:20.283Z,99.90
2023-03-03T17:51:38.292Z,97.40
2023-03-03T17:54:21.948Z,98.40
2023-03-03T17:57:00.661Z,95.70
2023-03-03T17:59:58.076Z,95.80
2023-03-03T18:02:45.936Z,96.10
2023-03-03T18:05:41.829Z,96.40
2023-03-03T18:08:27.353Z,96.80
2023-03-03T18:11:25.109Z,99.90
2023-03-03T18:14:22.481Z,97.60
2023-03-03T18:17:21.517Z,98.00
2023-03-03T18:20:11.330Z,98.40
2023-03-03T18:22:46.209Z,98.80
2023-03-03T18:25:18.437Z,99.10
2023-03-03T18:30:27.642Z,99.90
2023-03-03T18:33:16.196Z,99.90
2023-03-03T18:35:51.191Z,99.90
2023-03-03T18:38:35.864Z,99.90
2023-03-03T18:41:08.054Z,99.90
2023-03-03T18:43:56.896Z,99.90
2023-03-03T18:46:50.247Z,99.90
2023-03-03T18:49:20.961Z,99.90
2023-03-03T18:52:18.997Z,99.90
2023-03-03T18:55:19.946Z,99.90
2023-03-03T18:58:29.959Z,99.90
2023-03-03T19:01:02.552Z,99.90
2023-03-03T19:03:37.911Z,99.90
2023-03-03T19:06:10.319Z,99.90
2023-03-03T19:08:57.975Z,99.90
2023-03-03T19:11:40.906Z,99.90
2023-03-03T19:14:35.220Z,99.90
2023-03-03T19:17:34.998Z,99.90
2023-03-03T19:20:12.382Z,99.90
2023-03-03T19:22:48.269Z,99.90
2023-03-03T19:25:26.977Z,99.90
2023-03-03T19:28:17.349Z,99.90
2023-03-03T19:30:58.864Z,99.90
2023-03-03T19:33:40.837Z,99.90
2023-03-03T19:36:21.745Z,99.90
2023-03-03T19:39:03.670Z,99.90
2023-03-03T19:41:55.948Z,99.90
2023-03-03T19:44:37.721Z,99.90
2023-03-03T19:47:11.363Z,99.90
2023-03-03T19:49:58.143Z,99.90
2023-03-03T19:52:36.689Z,99.90
2023-03-03T19:55:29.170Z,99.90
2023-03-03T19:58:14.204Z,99.90
2023-03-03T20:00:46.222Z,99.90
2023-03-03T20:03:43.964Z,99.90
2023-03-03T20:06:27.831Z,99.90
2023-03-03T20:09:04.762Z,99.90
2023-03-03T20:11:49.582Z,99.90
2023-03-03T20:14:34.129Z,99.90
2023-03-03T20:17:30.760Z,99.90
2023-03-03T20:20:08.444Z,99.90
2023-03-03T20:22:48.065Z,99.90
2023-03-03T20:25:28.367Z,99.90
2023-03-03T20:28:06.578Z,99.90
2023-03-03T20:31:01.596Z,99.90
2023-03-03T20:33:48.271Z,99.90
2023-03-03T20:36:27.682Z,99.90
2023-03-03T20:39:11.479Z,99.90
2023-03-03T20:41:53.668Z,99.90
2023-03-03T20:44:33.918Z,99.90
2023-03-03T20:47:09.722Z,99.90
2023-03-03T20:50:01.851Z,99.90
2023-03-03T20:52:43.075Z,99.90
2023-03-03T20:55:22.086Z,99.90
2023-03-03T20:58:01.244Z,99.90
2023-03-03T21:00:37.196Z,99.90
2023-03-03T21:03:16.217Z,99.90
2023-03-03T21:06:01.206Z,99.90
2023-03-03T21:08:49.579Z,99.90
2023-03-03T21:11:21.475Z,99.90
2023-03-03T21:13:54.195Z,99.90
2023-03-03T21:16:35.818Z,99.90
2023-03-03T21:19:09.112Z,99.90
2023-03-03T21:21:45.206Z,99.90
2023-03-03T21:24:19.926Z,99.90
2023-03-03T21:26:52.763Z,99.90
2023-03-03T21:29:29.200Z,99.90
2023-03-03T21:32:00.787Z,99.90
2023-03-03T21:34:32.657Z,99.90
2023-03-03T21:37:09.799Z,99.90
2023-03-03T21:39:41.177Z,99.90
2023-03-03T21:42:14.456Z,99.90
2023-03-03T21:44:46.803Z,99.90
2023-03-03T21:47:18.710Z,99.90
2023-03-03T21:49:50.145Z,99.90
2023-03-03T21:52:24.935Z,99.90
2023-03-03T22:07:29.064Z,99.90
2023-03-03T22:50:14.212Z,99.90
2023-03-03T23:00:18.687Z,99.90
2023-03-03T23:07:51.944Z,99.90
2023-03-03T23:22:56.998Z,99.90
2023-03-03T23:28:00.467Z,99.90
2023-03-03T23:38:03.884Z,99.90
